createdAt,value
2019-03-05T00:00:36.054Z,6.56
2019-03-05T00:03:05.719Z,6.58
2019-03-05T00:05:35.563Z,6.65
2019-03-05T00:08:05.160Z,6.64
2019-03-05T00:10:34.915Z,6.56
2019-03-05T00:13:04.598Z,6.62
2019-03-05T00:15:34.327Z,6.60
2019-03-05T00:18:04.143Z,6.52
2019-03-05T00:20:35.225Z,6.37
2019-03-05T00:23:04.976Z,6.35
2019-03-05T00:25:34.594Z,6.44
2019-03-05T00:28:11.196Z,6.45
2019-03-05T00:30:46.891Z,6.38
2019-03-05T00:33:49.022Z,6.38
2019-03-05T00:36:35.100Z,6.19
2019-03-05T00:39:54.212Z,6.28
2019-03-05T00:43:12.836Z,6.27
2019-03-05T00:45:58.318Z,6.32
2019-03-05T00:48:50.778Z,6.30
2019-03-05T00:51:47.014Z,6.23
2019-03-05T00:54:40.583Z,6.14
2019-03-05T00:57:22.073Z,6.10
2019-03-05T01:00:15.814Z,6.10
2019-03-05T01:03:45.544Z,6.08
2019-03-05T01:06:25.450Z,5.81
2019-03-05T01:08:56.508Z,5.84
2019-03-05T01:11:26.323Z,5.84
2019-03-05T01:13:56.121Z,5.89
2019-03-05T01:16:30.322Z,5.88
2019-03-05T01:19:00.016Z,5.76
2019-03-05T01:21:29.648Z,5.80
2019-03-05T01:23:59.278Z,5.80
2019-03-05T01:26:28.899Z,5.84
2019-03-05T01:28:58.580Z,5.82
2019-03-05T01:31:53.053Z,5.83
2019-03-05T01:34:40.454Z,5.93
2019-03-05T01:37:10.408Z,5.92
2019-03-05T01:39:49.181Z,5.88
2019-03-05T01:42:19.044Z,5.98
2019-03-05T01:44:48.635Z,5.94
2019-03-05T01:47:18.290Z,5.84
2019-03-05T01:49:47.976Z,5.69
2019-03-05T01:52:17.755Z,5.86
2019-03-05T01:54:47.531Z,5.86
2019-03-05T01:57:17.050Z,5.87
2019-03-05T01:59:46.660Z,5.73
2019-03-05T02:02:16.279Z,5.73
2019-03-05T02:04:46.023Z,5.71
2019-03-05T02:07:15.910Z,5.64
2019-03-05T02:09:45.672Z,5.69
2019-03-05T02:12:15.523Z,5.48
2019-03-05T02:14:45.123Z,5.51
2019-03-05T02:17:14.756Z,5.56
2019-03-05T02:19:52.419Z,5.73
2019-03-05T02:22:36.941Z,5.72
2019-03-05T02:25:29.068Z,5.73
2019-03-05T02:28:10.403Z,5.87
2019-03-05T02:31:11.092Z,5.81
2019-03-05T02:34:08.485Z,5.71
2019-03-05T02:37:18.465Z,5.82
2019-03-05T02:40:09.461Z,5.84
2019-03-05T02:43:10.063Z,5.85
2019-03-05T02:46:01.813Z,5.73
2019-03-05T02:49:30.375Z,5.66
2019-03-05T02:52:43.309Z,5.77
2019-03-05T02:55:42.969Z,5.78
2019-03-05T02:58:10.651Z,5.63
2019-03-05T03:01:02.125Z,5.74
2019-03-05T03:03:35.783Z,5.75
2019-03-05T03:06:12.071Z,5.79
2019-03-05T03:08:41.549Z,5.70
2019-03-05T03:11:11.247Z,5.72
2019-03-05T03:13:40.912Z,5.80
2019-03-05T03:16:10.915Z,5.80
2019-03-05T03:18:40.452Z,5.69
2019-03-05T03:21:10.097Z,5.67
2019-03-05T03:23:39.755Z,5.73
2019-03-05T03:26:09.425Z,5.63
2019-03-05T03:28:39.027Z,5.40
2019-03-05T03:31:08.718Z,5.34
2019-03-05T03:33:38.390Z,5.43
2019-03-05T03:36:08.039Z,5.52
2019-03-05T03:38:37.674Z,5.61
2019-03-05T03:41:07.441Z,5.60
2019-03-05T03:43:36.983Z,5.55
2019-03-05T03:46:06.743Z,5.55
2019-03-05T03:48:36.340Z,5.54
2019-03-05T03:51:06.262Z,5.51
2019-03-05T03:53:36.097Z,5.45
2019-03-05T03:56:05.859Z,5.35
2019-03-05T03:58:35.793Z,5.38
2019-03-05T04:01:07.153Z,5.35
2019-03-05T04:03:37.243Z,5.36
2019-03-05T04:06:06.891Z,5.33
2019-03-05T04:08:36.555Z,5.36
2019-03-05T04:11:06.338Z,5.37
2019-03-05T04:13:35.941Z,5.29
2019-03-05T04:16:05.729Z,5.31
2019-03-05T04:18:35.351Z,5.33
2019-03-05T04:21:06.122Z,5.11
2019-03-05T04:23:35.696Z,5.00
2019-03-05T04:26:05.356Z,4.87
2019-03-05T04:28:35.135Z,4.82
2019-03-05T04:31:04.856Z,4.68
2019-03-05T04:33:34.444Z,4.66
2019-03-05T04:36:04.365Z,4.66
2019-03-05T04:38:34.094Z,4.73
2019-03-05T04:41:03.904Z,4.74
2019-03-05T04:43:33.550Z,4.87
2019-03-05T04:46:22.182Z,4.90
2019-03-05T04:49:10.693Z,4.90
2019-03-05T04:51:46.988Z,5.00
2019-03-05T04:54:16.760Z,4.99
2019-03-05T04:56:46.491Z,4.80
2019-03-05T04:59:16.172Z,4.70
2019-03-05T05:01:45.716Z,4.66
2019-03-05T05:04:15.281Z,4.63
2019-03-05T05:06:44.865Z,4.63
2019-03-05T05:09:14.467Z,4.68
2019-03-05T05:11:44.026Z,4.66
2019-03-05T05:14:13.749Z,4.74
2019-03-05T05:16:43.539Z,4.86
2019-03-05T05:19:13.179Z,4.91
2019-03-05T05:21:42.900Z,4.92
2019-03-05T05:24:12.463Z,4.83
2019-03-05T05:26:42.105Z,4.98
2019-03-05T05:29:11.714Z,5.16
2019-03-05T05:31:41.143Z,5.24
2019-03-05T05:34:10.864Z,5.25
2019-03-05T05:36:40.508Z,5.44
2019-03-05T05:39:46.941Z,5.64
2019-03-05T05:42:16.557Z,5.83
2019-03-05T05:44:46.151Z,5.96
2019-03-05T05:47:15.842Z,5.91
2019-03-05T05:49:45.498Z,6.07
2019-03-05T05:52:15.186Z,6.18
2019-03-05T05:54:44.900Z,6.30
2019-03-05T05:57:14.578Z,6.39
2019-03-05T05:59:44.307Z,6.34
2019-03-05T06:02:14.096Z,6.34
2019-03-05T06:04:43.727Z,6.47
2019-03-05T06:07:13.498Z,6.64
2019-03-05T06:09:43.128Z,6.78
2019-03-05T06:12:12.638Z,6.71
2019-03-05T06:14:43.342Z,7.03
2019-03-05T06:17:13.073Z,7.03
2019-03-05T06:19:42.806Z,7.10
2019-03-05T06:22:13.944Z,7.53
2019-03-05T06:24:43.774Z,7.92
2019-03-05T06:27:13.467Z,8.27
2019-03-05T06:29:43.080Z,8.83
2019-03-05T06:32:12.669Z,9.58
2019-03-05T06:34:44.014Z,10.13
2019-03-05T06:37:13.649Z,10.99
2019-03-05T06:39:43.380Z,12.09
2019-03-05T06:42:13.091Z,13.09
2019-03-05T06:44:42.870Z,14.69
2019-03-05T06:47:14.106Z,15.83
2019-03-05T06:49:43.768Z,16.65
2019-03-05T06:52:14.920Z,18.09
2019-03-05T06:54:45.632Z,19.45
2019-03-05T06:57:17.569Z,20.99
2019-03-05T06:59:47.101Z,22.16
2019-03-05T07:02:18.662Z,23.18
2019-03-05T07:04:59.098Z,23.18
2019-03-05T07:07:34.554Z,23.81
2019-03-05T07:10:30.141Z,24.14
2019-03-05T07:13:18.105Z,24.97
2019-03-05T07:16:11.488Z,25.39
2019-03-05T07:19:01.807Z,25.42
2019-03-05T07:22:06.952Z,27.00
2019-03-05T07:24:50.589Z,27.43
2019-03-05T07:27:31.307Z,28.33
2019-03-05T07:30:05.565Z,29.30
2019-03-05T07:32:37.574Z,30.09
2019-03-05T07:35:11.048Z,31.04
2019-03-05T07:37:40.608Z,30.79
2019-03-05T07:40:11.130Z,30.23
2019-03-05T07:42:40.836Z,30.94
2019-03-05T07:45:10.884Z,32.00
2019-03-05T07:47:40.554Z,32.74
2019-03-05T07:50:10.441Z,33.61
2019-03-05T07:52:40.194Z,33.82
2019-03-05T07:55:17.499Z,33.09
2019-03-05T07:57:48.683Z,34.16
2019-03-05T08:00:20.910Z,33.97
2019-03-05T08:02:50.697Z,34.31
2019-03-05T08:05:20.197Z,34.24
2019-03-05T08:07:52.914Z,35.28
2019-03-05T08:10:28.139Z,35.25
2019-03-05T08:13:30.328Z,35.32
2019-03-05T08:16:25.201Z,34.89
2019-03-05T08:18:54.748Z,34.74
2019-03-05T08:21:24.392Z,34.00
2019-03-05T08:23:55.303Z,34.76
2019-03-05T08:26:26.175Z,34.40
2019-03-05T08:28:55.903Z,34.45
2019-03-05T08:31:25.474Z,33.06
2019-03-05T08:33:55.496Z,32.89
2019-03-05T08:36:25.252Z,32.85
2019-03-05T08:38:54.893Z,33.31
2019-03-05T08:41:26.242Z,34.07
2019-03-05T08:43:55.966Z,35.42
2019-03-05T08:46:25.594Z,35.50
2019-03-05T08:48:55.255Z,36.52
2019-03-05T08:51:25.117Z,35.92
2019-03-05T08:53:56.827Z,35.95
2019-03-05T08:56:26.065Z,36.29
2019-03-05T08:58:55.692Z,37.55
2019-03-05T09:01:26.710Z,38.21
2019-03-05T09:03:56.345Z,38.57
2019-03-05T09:06:26.104Z,39.13
2019-03-05T09:08:57.476Z,39.42
2019-03-05T09:11:27.034Z,39.04
2019-03-05T09:13:56.630Z,39.31
2019-03-05T09:16:26.297Z,39.56
2019-03-05T09:18:56.099Z,38.96
2019-03-05T09:21:25.853Z,39.62
2019-03-05T09:23:55.510Z,40.51
2019-03-05T09:26:25.232Z,40.07
2019-03-05T09:28:54.835Z,40.19
2019-03-05T09:31:25.431Z,39.94
2019-03-05T09:33:55.016Z,40.67
2019-03-05T09:36:25.901Z,41.33
2019-03-05T09:38:57.998Z,40.93
2019-03-05T09:41:27.607Z,41.66
2019-03-05T09:43:57.270Z,41.66
2019-03-05T09:46:26.996Z,42.38
2019-03-05T09:48:58.223Z,42.79
2019-03-05T09:51:27.943Z,43.06
2019-03-05T09:53:57.651Z,42.35
2019-03-05T09:56:28.946Z,42.54
2019-03-05T09:58:58.469Z,41.07
2019-03-05T10:01:28.325Z,39.47
2019-03-05T10:03:58.073Z,39.47
2019-03-05T10:06:27.686Z,39.67
2019-03-05T10:08:57.270Z,39.24
2019-03-05T10:11:26.842Z,37.87
2019-03-05T10:13:58.553Z,37.52
2019-03-05T10:16:31.434Z,37.34
2019-03-05T10:19:00.960Z,36.49
2019-03-05T10:21:30.483Z,36.48
2019-03-05T10:24:09.917Z,36.94
2019-03-05T10:26:32.731Z,38.03
2019-03-05T10:29:02.379Z,36.97
2019-03-05T10:31:33.291Z,36.92
2019-03-05T10:34:02.989Z,36.70
2019-03-05T10:36:34.127Z,36.36
2019-03-05T10:39:05.393Z,36.29
2019-03-05T10:41:35.073Z,35.60
2019-03-05T10:44:04.823Z,35.00
2019-03-05T10:46:35.437Z,35.09
2019-03-05T10:49:05.244Z,35.89
2019-03-05T10:51:36.199Z,35.94
2019-03-05T10:54:06.139Z,36.25
2019-03-05T10:56:37.548Z,36.75
2019-03-05T10:59:07.120Z,35.87
2019-03-05T11:01:37.248Z,35.19
2019-03-05T11:04:09.757Z,34.51
2019-03-05T11:06:39.175Z,33.89
2019-03-05T11:09:12.643Z,34.49
2019-03-05T11:11:42.195Z,33.46
2019-03-05T11:14:12.017Z,32.75
2019-03-05T11:16:41.669Z,31.72
2019-03-05T11:19:11.413Z,31.35
2019-03-05T11:21:41.095Z,32.07
2019-03-05T11:24:10.842Z,32.74
2019-03-05T11:26:40.509Z,32.27
2019-03-05T11:29:12.110Z,31.51
2019-03-05T11:31:44.058Z,31.41
2019-03-05T11:34:13.778Z,29.97
2019-03-05T11:36:43.444Z,29.43
2019-03-05T11:39:13.478Z,29.08
2019-03-05T11:41:43.209Z,28.32
2019-03-05T11:44:14.918Z,27.61
2019-03-05T11:46:44.715Z,27.93
2019-03-05T11:49:14.379Z,27.23
2019-03-05T11:51:43.906Z,26.22
2019-03-05T11:54:13.553Z,25.21
2019-03-05T11:56:43.265Z,24.89
2019-03-05T11:59:12.919Z,24.70
2019-03-05T12:01:46.435Z,24.75
2019-03-05T12:04:17.558Z,24.73
2019-03-05T12:06:47.300Z,24.81
2019-03-05T12:09:16.918Z,24.63
2019-03-05T12:11:48.625Z,24.52
2019-03-05T12:14:18.533Z,24.53
2019-03-05T12:16:48.086Z,24.16
2019-03-05T12:19:22.312Z,24.11
2019-03-05T12:21:51.994Z,23.76
2019-03-05T12:24:24.175Z,23.64
2019-03-05T12:26:52.948Z,23.39
2019-03-05T12:29:22.542Z,23.28
2019-03-05T12:31:52.457Z,23.21
2019-03-05T12:34:22.172Z,23.14
2019-03-05T12:36:51.781Z,23.00
2019-03-05T12:39:22.104Z,23.16
2019-03-05T12:41:51.797Z,23.12
2019-03-05T12:44:21.356Z,23.28
2019-03-05T12:46:53.175Z,23.31
2019-03-05T12:49:22.870Z,23.13
2019-03-05T12:51:52.496Z,23.01
2019-03-05T12:54:22.239Z,22.71
2019-03-05T12:56:51.810Z,22.42
2019-03-05T12:59:21.472Z,22.20
2019-03-05T13:01:51.106Z,22.13
2019-03-05T13:04:20.707Z,22.08
2019-03-05T13:06:52.604Z,22.08
2019-03-05T13:09:22.330Z,21.98
2019-03-05T13:11:51.975Z,22.02
2019-03-05T13:14:21.556Z,22.09
2019-03-05T13:16:51.340Z,21.95
2019-03-05T13:19:20.986Z,21.95
2019-03-05T13:21:50.296Z,21.91
2019-03-05T13:24:20.085Z,21.68
2019-03-05T13:26:49.556Z,21.39
2019-03-05T13:29:20.567Z,21.32
2019-03-05T13:31:50.483Z,21.03
2019-03-05T13:34:20.065Z,20.70
2019-03-05T13:36:50.644Z,20.35
2019-03-05T13:39:23.688Z,20.16
2019-03-05T13:41:56.971Z,19.94
2019-03-05T13:44:34.376Z,19.76
2019-03-05T13:47:05.847Z,19.63
2019-03-05T13:50:24.155Z,19.53
2019-03-05T13:53:30.862Z,19.46
2019-03-05T13:56:25.064Z,19.34
2019-03-05T13:59:33.959Z,19.24
2019-03-05T14:02:04.049Z,19.18
2019-03-05T14:04:58.901Z,19.05
2019-03-05T14:08:04.159Z,19.04
2019-03-05T14:10:33.811Z,19.05
2019-03-05T14:13:04.868Z,19.02
2019-03-05T14:15:35.146Z,19.03
2019-03-05T14:18:07.672Z,19.01
2019-03-05T14:20:39.508Z,19.04
2019-03-05T14:23:08.851Z,18.95
2019-03-05T14:25:39.613Z,18.85
2019-03-05T14:28:10.582Z,18.62
2019-03-05T14:30:41.132Z,18.59
2019-03-05T14:33:10.932Z,18.58
2019-03-05T14:35:41.038Z,18.57
2019-03-05T14:38:10.966Z,18.56
2019-03-05T14:40:40.888Z,18.50
2019-03-05T14:43:10.715Z,18.39
2019-03-05T14:45:40.546Z,18.32
2019-03-05T14:48:10.225Z,18.23
2019-03-05T14:50:42.232Z,18.17
2019-03-05T14:53:11.980Z,18.09
2019-03-05T14:55:43.022Z,17.94
2019-03-05T14:58:12.722Z,17.95
2019-03-05T15:00:42.450Z,17.83
2019-03-05T15:03:12.082Z,17.88
2019-03-05T15:05:41.844Z,17.94
2019-03-05T15:08:11.638Z,17.94
2019-03-05T15:10:42.645Z,17.84
2019-03-05T15:13:17.335Z,17.79
2019-03-05T15:15:43.960Z,17.81
2019-03-05T15:18:13.568Z,17.83
2019-03-05T15:20:43.261Z,17.91
2019-03-05T15:23:13.057Z,17.92
2019-03-05T15:25:42.777Z,17.88
2019-03-05T15:28:12.521Z,17.79
2019-03-05T15:30:42.137Z,17.83
2019-03-05T15:33:11.809Z,17.81
2019-03-05T15:35:41.533Z,17.84
2019-03-05T15:38:11.169Z,17.85
2019-03-05T15:40:42.493Z,17.84
2019-03-05T15:43:12.186Z,17.82
2019-03-05T15:45:41.847Z,17.79
2019-03-05T15:48:11.586Z,17.76
2019-03-05T15:50:41.084Z,17.76
2019-03-05T15:53:10.577Z,17.74
2019-03-05T15:55:40.227Z,17.68
2019-03-05T15:58:10.784Z,17.65
2019-03-05T16:00:41.239Z,17.56
2019-03-05T16:03:10.992Z,17.52
2019-03-05T16:05:41.111Z,17.50
2019-03-05T16:08:12.894Z,17.50
2019-03-05T16:10:43.907Z,17.45
2019-03-05T16:13:15.310Z,17.36
2019-03-05T16:15:45.818Z,17.30
2019-03-05T16:18:16.586Z,17.23
2019-03-05T16:20:46.232Z,17.11
2019-03-05T16:23:16.011Z,17.02
2019-03-05T16:25:50.212Z,16.80
2019-03-05T16:28:19.291Z,16.80
2019-03-05T16:31:12.487Z,16.75
2019-03-05T16:34:19.546Z,16.66
2019-03-05T16:37:13.994Z,16.56
2019-03-05T16:40:16.751Z,16.56
2019-03-05T16:42:58.639Z,16.47
2019-03-05T16:45:42.741Z,16.37
2019-03-05T16:48:30.022Z,16.26
2019-03-05T16:51:18.642Z,16.27
2019-03-05T16:54:05.016Z,16.23
2019-03-05T16:56:52.363Z,16.11
2019-03-05T16:59:40.113Z,16.04
2019-03-05T17:02:47.127Z,16.08
2019-03-05T17:05:36.464Z,15.96
2019-03-05T17:08:31.568Z,15.90
2019-03-05T17:11:35.115Z,15.87
2019-03-05T17:14:04.769Z,15.81
2019-03-05T17:16:37.363Z,15.68
2019-03-05T17:19:06.955Z,15.58
2019-03-05T17:21:36.745Z,15.53
2019-03-05T17:24:07.206Z,15.50
2019-03-05T17:26:37.128Z,15.44
2019-03-05T17:29:06.855Z,15.47
2019-03-05T17:31:36.567Z,15.35
2019-03-05T17:34:06.411Z,15.30
2019-03-05T17:36:38.222Z,15.28
2019-03-05T17:39:17.724Z,15.23
2019-03-05T17:41:47.345Z,15.19
2019-03-05T17:44:17.235Z,15.22
2019-03-05T17:46:47.174Z,15.19
2019-03-05T17:49:16.956Z,15.07
2019-03-05T17:51:46.776Z,15.10
2019-03-05T17:54:16.549Z,15.05
2019-03-05T17:56:46.404Z,15.00
2019-03-05T17:59:16.003Z,15.00
2019-03-05T18:01:45.741Z,15.01
2019-03-05T18:04:15.504Z,15.00
2019-03-05T18:06:47.499Z,14.88
2019-03-05T18:09:17.605Z,14.88
2019-03-05T18:11:47.321Z,14.83
2019-03-05T18:14:17.245Z,14.81
2019-03-05T18:16:46.855Z,14.79
2019-03-05T18:19:16.748Z,14.81
2019-03-05T18:21:46.357Z,14.78
2019-03-05T18:24:16.124Z,14.68
2019-03-05T18:26:45.869Z,14.62
2019-03-05T18:29:15.547Z,14.50
2019-03-05T18:31:45.276Z,14.51
2019-03-05T18:34:15.208Z,14.41
2019-03-05T18:36:45.973Z,14.29
2019-03-05T18:39:15.914Z,14.23
2019-03-05T18:41:45.613Z,14.19
2019-03-05T18:44:15.490Z,14.13
2019-03-05T18:46:45.219Z,14.08
2019-03-05T18:49:15.093Z,14.04
2019-03-05T18:51:44.931Z,14.04
2019-03-05T18:54:14.691Z,13.99
2019-03-05T18:56:44.456Z,13.87
2019-03-05T18:59:14.185Z,13.79
2019-03-05T19:01:48.880Z,13.86
2019-03-05T19:04:21.377Z,13.78
2019-03-05T19:06:51.121Z,13.70
2019-03-05T19:09:21.774Z,13.65
2019-03-05T19:11:51.542Z,13.71
2019-03-05T19:14:21.068Z,13.60
2019-03-05T19:16:50.792Z,13.52
2019-03-05T19:19:20.358Z,13.48
2019-03-05T19:21:50.001Z,13.47
2019-03-05T19:24:19.658Z,13.30
2019-03-05T19:26:49.286Z,13.26
2019-03-05T19:29:19.015Z,13.34
2019-03-05T19:31:48.592Z,13.38
2019-03-05T19:34:18.168Z,13.45
2019-03-05T19:36:47.950Z,13.39
2019-03-05T19:39:17.975Z,13.30
2019-03-05T19:41:55.805Z,13.28
2019-03-05T19:44:20.661Z,13.33
2019-03-05T19:46:50.346Z,13.37
2019-03-05T19:49:19.971Z,13.33
2019-03-05T19:51:49.934Z,13.41
2019-03-05T19:54:19.556Z,13.38
2019-03-05T19:56:49.145Z,13.39
2019-03-05T19:59:18.779Z,13.37
2019-03-05T20:01:49.971Z,13.28
2019-03-05T20:04:19.730Z,13.25
2019-03-05T20:06:49.408Z,13.24
2019-03-05T20:09:21.063Z,13.10
2019-03-05T20:11:50.813Z,13.07
2019-03-05T20:14:20.514Z,13.08
2019-03-05T20:16:50.217Z,13.08
2019-03-05T20:19:20.033Z,13.07
2019-03-05T20:21:49.734Z,13.09
2019-03-05T20:24:19.308Z,13.11
2019-03-05T20:26:49.195Z,13.03
2019-03-05T20:29:18.815Z,13.00
2019-03-05T20:31:48.506Z,12.98
2019-03-05T20:34:18.102Z,13.02
2019-03-05T20:36:48.034Z,13.02
2019-03-05T20:39:17.818Z,12.99
2019-03-05T20:41:47.645Z,13.01
2019-03-05T20:44:17.344Z,12.94
2019-03-05T20:46:46.879Z,12.90
2019-03-05T20:49:18.303Z,12.86
2019-03-05T20:51:47.881Z,12.84
2019-03-05T20:54:17.825Z,12.84
2019-03-05T20:56:47.333Z,12.87
2019-03-05T20:59:17.015Z,12.87
2019-03-05T21:01:47.593Z,12.79
2019-03-05T21:04:17.274Z,12.69
2019-03-05T21:06:47.265Z,12.61
2019-03-05T21:09:25.952Z,12.60
2019-03-05T21:11:55.833Z,12.58
2019-03-05T21:14:25.936Z,12.50
2019-03-05T21:16:55.598Z,12.49
2019-03-05T21:19:25.450Z,12.38
2019-03-05T21:21:54.943Z,12.17
2019-03-05T21:24:24.797Z,12.06
2019-03-05T21:26:54.334Z,11.96
2019-03-05T21:29:23.963Z,11.81
2019-03-05T21:31:53.552Z,11.65
2019-03-05T21:34:23.228Z,11.55
2019-03-05T21:36:52.961Z,11.30
2019-03-05T21:39:22.664Z,11.04
2019-03-05T21:41:52.301Z,10.97
2019-03-05T21:44:23.200Z,10.91
2019-03-05T21:46:52.767Z,10.80
2019-03-05T21:49:22.820Z,10.78
2019-03-05T21:51:52.500Z,10.74
2019-03-05T21:54:22.159Z,10.78
2019-03-05T21:56:51.954Z,10.80
2019-03-05T21:59:21.699Z,10.66
2019-03-05T22:01:51.281Z,10.59
2019-03-05T22:04:20.923Z,10.61
2019-03-05T22:06:50.544Z,10.70
2019-03-05T22:09:20.197Z,10.74
2019-03-05T22:11:49.858Z,10.88
2019-03-05T22:14:19.623Z,10.82
2019-03-05T22:16:49.357Z,10.89
2019-03-05T22:19:19.011Z,10.93
2019-03-05T22:21:48.649Z,10.88
2019-03-05T22:24:18.293Z,10.87
2019-03-05T22:26:48.059Z,10.82
2019-03-05T22:29:17.636Z,10.64
2019-03-05T22:31:47.408Z,10.82
2019-03-05T22:34:17.416Z,10.90
2019-03-05T22:36:47.137Z,10.92
2019-03-05T22:39:17.056Z,10.84
2019-03-05T22:41:47.683Z,10.82
2019-03-05T22:44:18.362Z,10.73
2019-03-05T22:46:47.922Z,10.64
2019-03-05T22:49:17.397Z,10.73
2019-03-05T22:51:47.152Z,10.80
2019-03-05T22:54:16.783Z,10.82
2019-03-05T22:56:46.357Z,10.75
2019-03-05T22:59:16.002Z,10.78
2019-03-05T23:01:46.101Z,10.67
2019-03-05T23:04:19.496Z,10.63
2019-03-05T23:06:50.501Z,10.58
2019-03-05T23:09:26.873Z,10.60
2019-03-05T23:11:56.494Z,10.59
2019-03-05T23:14:26.532Z,10.67
2019-03-05T23:16:56.092Z,10.42
2019-03-05T23:19:25.790Z,10.34
2019-03-05T23:21:55.559Z,10.35
2019-03-05T23:24:25.241Z,10.33
2019-03-05T23:26:54.919Z,10.45
2019-03-05T23:29:44.775Z,10.47
2019-03-05T23:32:16.187Z,10.53
2019-03-05T23:34:45.888Z,10.55
2019-03-05T23:37:15.390Z,10.53
2019-03-05T23:39:45.240Z,10.50
2019-03-05T23:42:14.908Z,10.45
2019-03-05T23:44:44.578Z,10.48
2019-03-05T23:47:14.168Z,10.44
2019-03-05T23:49:43.808Z,10.40
2019-03-05T23:52:13.504Z,10.40
2019-03-05T23:54:44.636Z,10.41
2019-03-05T23:57:14.346Z,10.31
2019-03-05T23:59:43.998Z,10.32
